createdAt,value
2023-04-18T00:05:59.413Z,99177.41
2023-04-18T00:08:39.448Z,99174.75
2023-04-18T00:11:12.774Z,99174.75
2023-04-18T00:13:47.535Z,99179.19
2023-04-18T00:16:20.942Z,99178.28
2023-04-18T00:32:38.088Z,99168.66
2023-04-18T00:35:11.784Z,99170.38
2023-04-18T00:37:45.435Z,99173.03
2023-04-18T00:40:19.095Z,99166.88
2023-04-18T00:42:52.438Z,99167.81
2023-04-18T00:45:25.744Z,99160.78
2023-04-18T00:48:01.496Z,99172.31
2023-04-18T00:57:55.407Z,99167.94
2023-04-18T01:00:35.480Z,99174.97
2023-04-18T01:03:10.816Z,99169.72
2023-04-18T01:05:44.441Z,99170.59
2023-04-18T01:08:20.460Z,99162.63
2023-04-18T01:10:57.426Z,99170.66
2023-04-18T01:13:30.725Z,99168.84
2023-04-18T01:26:21.412Z,99171.66
2023-04-18T01:29:01.549Z,99161.97
2023-04-18T01:31:35.653Z,99160.25
2023-04-18T01:34:10.268Z,99165.56
2023-04-18T01:36:44.596Z,99164.81
2023-04-18T01:53:00.439Z,99154.28
2023-04-18T01:55:38.922Z,99153.47
2023-04-18T01:58:19.438Z,99158.75
2023-04-18T02:00:54.624Z,99164.97
2023-04-18T02:03:28.622Z,99152.56
2023-04-18T02:06:04.159Z,99158.78
2023-04-18T02:08:39.447Z,99160.53
2023-04-18T02:18:24.640Z,99159.88
2023-04-18T02:21:04.426Z,99157.22
2023-04-18T02:23:39.667Z,99158.94
2023-04-18T02:26:13.442Z,99161.66
2023-04-18T02:28:48.090Z,99163.41
2023-04-18T02:31:22.451Z,99167.81
2023-04-18T02:44:57.464Z,99163.41
2023-04-18T02:47:37.569Z,99171.41
2023-04-18T02:50:24.712Z,99160.03
2023-04-18T02:52:58.767Z,99171.56
2023-04-18T02:55:40.413Z,99164.53
2023-04-18T02:58:13.899Z,99173.41
2023-04-18T03:13:54.414Z,99172.75
2023-04-18T03:16:35.153Z,99170.09
2023-04-18T03:19:18.436Z,99170.19
2023-04-18T03:21:53.696Z,99177.25
2023-04-18T03:24:27.485Z,99179.97
2023-04-18T03:27:03.688Z,99178.25
2023-04-18T03:39:54.389Z,99170.47
2023-04-18T03:42:36.657Z,99169.63
2023-04-18T03:45:11.414Z,99164.34
2023-04-18T03:47:45.448Z,99174.09
2023-04-18T03:50:20.403Z,99174.13
2023-04-18T03:52:55.449Z,99175.94
2023-04-18T04:06:11.404Z,99183.09
2023-04-18T04:08:45.225Z,99189.28
2023-04-18T04:11:21.501Z,99185.75
2023-04-18T04:13:55.416Z,99176.94
2023-04-18T04:16:34.446Z,99190.28
2023-04-18T04:33:13.395Z,99206.19
2023-04-18T04:35:54.412Z,99208.88
2023-04-18T04:38:30.194Z,99197.41
2023-04-18T04:41:04.438Z,99199.28
2023-04-18T04:43:38.293Z,99208.16
2023-04-18T04:46:12.584Z,99205.50
2023-04-18T04:48:49.306Z,99209.03
2023-04-18T04:58:43.416Z,99226.69
2023-04-18T05:01:32.624Z,99217.78
2023-04-18T05:04:14.772Z,99223.94
2023-04-18T05:06:48.846Z,99217.78
2023-04-18T05:09:22.415Z,99217.78
2023-04-18T05:11:55.929Z,99222.22
2023-04-18T05:25:28.388Z,99232.09
2023-04-18T05:28:08.467Z,99234.81
2023-04-18T05:30:41.726Z,99227.78
2023-04-18T05:33:15.453Z,99237.59
2023-04-18T05:35:48.674Z,99229.63
2023-04-18T05:38:22.414Z,99224.31
2023-04-18T05:52:13.632Z,99231.34
2023-04-18T05:54:46.658Z,99240.19
2023-04-18T05:57:20.398Z,99235.75
2023-04-18T05:59:53.808Z,99241.97
2023-04-18T06:02:27.661Z,99241.13
2023-04-18T06:05:00.752Z,99243.75
2023-04-18T06:07:36.443Z,99249.16
2023-04-18T06:20:46.408Z,99250.09
2023-04-18T06:23:21.615Z,99252.72
2023-04-18T06:25:55.399Z,99258.88
2023-04-18T06:28:28.647Z,99254.44
2023-04-18T06:31:08.419Z,99259.75
2023-04-18T06:33:41.740Z,99246.41
2023-04-18T06:46:32.398Z,99249.00
2023-04-18T06:49:12.413Z,99250.81
2023-04-18T06:51:45.645Z,99244.53
2023-04-18T06:54:20.365Z,99254.22
2023-04-18T06:56:53.900Z,99256.03
2023-04-18T07:13:09.384Z,99255.84
2023-04-18T07:15:42.696Z,99260.22
2023-04-18T07:18:26.511Z,99261.09
2023-04-18T07:21:43.246Z,99265.53
2023-04-18T07:24:07.394Z,99257.63
2023-04-18T07:26:40.900Z,99261.94
2023-04-18T07:39:31.370Z,99275.28
2023-04-18T07:42:11.437Z,99273.53
2023-04-18T07:44:44.651Z,99269.97
2023-04-18T07:47:22.283Z,99268.19
2023-04-18T07:49:55.672Z,99266.38
2023-04-18T07:52:29.417Z,99272.50
2023-04-18T08:05:59.382Z,99269.72
2023-04-18T08:08:33.538Z,99275.00
2023-04-18T08:11:07.381Z,99272.38
2023-04-18T08:13:40.750Z,99286.50
2023-04-18T08:16:17.301Z,99282.13
2023-04-18T08:18:50.711Z,99283.91
2023-04-18T08:21:26.381Z,99278.59
2023-04-18T08:23:59.630Z,99285.63
2023-04-18T08:33:24.492Z,99286.53
2023-04-18T08:35:57.623Z,99289.19
2023-04-18T08:38:33.401Z,99282.97
2023-04-18T08:41:07.796Z,99278.59
2023-04-18T08:43:41.405Z,99288.28
2023-04-18T08:46:15.011Z,99289.16
2023-04-18T08:48:48.390Z,99284.78
2023-04-18T08:59:18.387Z,99290.94
2023-04-18T09:02:04.426Z,99294.47
2023-04-18T09:04:39.916Z,99298.81
2023-04-18T09:07:16.387Z,99298.81
2023-04-18T09:09:53.722Z,99300.56
2023-04-18T09:12:34.369Z,99306.84
2023-04-18T09:26:13.380Z,99296.13
2023-04-18T09:28:53.320Z,99303.13
2023-04-18T09:31:34.404Z,99299.63
2023-04-18T09:34:20.678Z,99302.28
2023-04-18T09:37:15.460Z,99296.91
2023-04-18T09:39:48.680Z,99304.84
2023-04-18T09:42:28.206Z,99297.03
2023-04-18T09:52:55.344Z,99306.59
2023-04-18T09:55:37.395Z,99305.66
2023-04-18T09:58:14.391Z,99300.38
2023-04-18T10:00:56.384Z,99304.75
2023-04-18T10:03:40.440Z,99302.09
2023-04-18T10:06:24.199Z,99304.75
2023-04-18T10:08:58.259Z,99305.59
2023-04-18T10:21:58.352Z,99312.56
2023-04-18T10:24:57.377Z,99306.34
2023-04-18T10:27:56.657Z,99301.03
2023-04-18T10:31:07.377Z,99310.72
2023-04-18T10:46:48.377Z,99315.09
2023-04-18T10:49:32.629Z,99320.41
2023-04-18T10:52:06.603Z,99323.00
2023-04-18T10:54:45.368Z,99320.41
2023-04-18T10:57:18.716Z,99321.25
2023-04-18T10:59:57.380Z,99323.91
2023-04-18T11:02:47.910Z,99322.16
2023-04-18T11:13:04.370Z,99316.84
2023-04-18T11:15:38.023Z,99320.28
2023-04-18T11:18:15.443Z,99318.53
2023-04-18T11:20:50.803Z,99329.16
2023-04-18T11:23:25.391Z,99318.53
2023-04-18T11:25:59.159Z,99320.28
2023-04-18T11:28:33.362Z,99315.84
2023-04-18T11:41:47.363Z,99329.78
2023-04-18T11:44:24.770Z,99331.44
2023-04-18T11:47:05.363Z,99322.63
2023-04-18T11:49:38.648Z,99324.31
2023-04-18T11:52:18.405Z,99321.63
2023-04-18T12:08:55.335Z,99327.69
2023-04-18T12:11:36.389Z,99317.06
2023-04-18T12:14:24.436Z,99321.50
2023-04-18T12:17:05.173Z,99321.50
2023-04-18T12:19:38.770Z,99310.88
2023-04-18T12:22:12.349Z,99323.22
2023-04-18T12:35:25.382Z,99327.41
2023-04-18T12:38:01.322Z,99322.97
2023-04-18T12:40:36.375Z,99320.38
2023-04-18T12:43:09.910Z,99326.53
2023-04-18T12:45:43.351Z,99326.53
2023-04-18T12:48:16.732Z,99324.69
2023-04-18T13:01:07.359Z,99320.97
2023-04-18T13:03:53.698Z,99321.88
2023-04-18T13:06:37.737Z,99336.91
2023-04-18T13:09:11.523Z,99326.28
2023-04-18T13:11:44.693Z,99322.69
2023-04-18T13:27:15.344Z,99315.41
2023-04-18T13:29:48.720Z,99311.00
2023-04-18T13:32:22.381Z,99318.03
2023-04-18T13:34:55.629Z,99318.97
2023-04-18T13:37:29.374Z,99313.66
2023-04-18T13:40:03.957Z,99312.81
2023-04-18T13:42:42.376Z,99319.84
2023-04-18T13:55:16.407Z,99318.13
2023-04-18T13:57:51.543Z,99312.88
2023-04-18T14:00:26.337Z,99309.28
2023-04-18T14:02:59.787Z,99317.25
2023-04-18T14:05:33.338Z,99324.28
2023-04-18T14:08:06.603Z,99319.91
2023-04-18T14:20:57.339Z,99317.25
2023-04-18T14:23:38.319Z,99315.41
2023-04-18T14:26:11.584Z,99310.97
2023-04-18T14:28:45.345Z,99314.47
2023-04-18T14:31:20.279Z,99318.84
2023-04-18T14:33:53.364Z,99314.41
2023-04-18T14:47:17.378Z,99303.78
2023-04-18T14:49:50.637Z,99303.78
2023-04-18T14:52:24.350Z,99310.75
2023-04-18T14:54:57.729Z,99314.31
2023-04-18T14:57:31.363Z,99308.09
2023-04-18T15:00:07.963Z,99308.09
2023-04-18T15:02:50.450Z,99309.00
2023-04-18T15:16:01.349Z,99296.53
2023-04-18T15:18:36.622Z,99293.88
2023-04-18T15:21:10.363Z,99298.34
2023-04-18T15:23:43.607Z,99293.03
2023-04-18T15:26:18.172Z,99292.16
2023-04-18T15:28:53.956Z,99296.53
2023-04-18T15:41:44.314Z,99299.19
2023-04-18T15:44:24.325Z,99292.16
2023-04-18T15:46:57.779Z,99297.47
2023-04-18T15:52:02.657Z,99300.94
2023-04-18T16:08:18.319Z,99308.97
2023-04-18T16:10:52.302Z,99297.47
2023-04-18T16:13:25.398Z,99301.00
2023-04-18T16:15:58.663Z,99301.94
2023-04-18T16:18:32.335Z,99295.75
2023-04-18T16:21:05.968Z,99292.16
2023-04-18T16:23:41.313Z,99290.31
2023-04-18T16:34:11.365Z,99290.22
2023-04-18T16:36:51.503Z,99292.81
2023-04-18T16:39:28.808Z,99284.84
2023-04-18T16:42:09.335Z,99291.88
2023-04-18T16:44:42.663Z,99279.53
2023-04-18T16:47:16.352Z,99291.03
2023-04-18T17:01:01.350Z,99296.44
2023-04-18T17:03:34.832Z,99299.06
2023-04-18T17:06:08.352Z,99295.53
2023-04-18T17:08:41.678Z,99293.88
2023-04-18T17:11:15.337Z,99293.78
2023-04-18T17:13:48.805Z,99298.19
2023-04-18T17:30:04.345Z,99298.13
2023-04-18T17:32:37.595Z,99302.50
2023-04-18T17:35:13.137Z,99290.16
2023-04-18T17:37:47.900Z,99300.78
2023-04-18T17:40:21.315Z,99297.19
2023-04-18T17:42:54.689Z,99305.16
2023-04-18T17:55:46.319Z,99299.06
2023-04-18T17:58:26.341Z,99293.69
2023-04-18T18:00:59.601Z,99300.78
2023-04-18T18:03:33.520Z,99302.59
2023-04-18T18:06:06.844Z,99298.13
2023-04-18T18:08:40.351Z,99310.47
2023-04-18T18:21:52.350Z,99315.94
2023-04-18T18:24:30.913Z,99323.91
2023-04-18T18:27:04.310Z,99322.09
2023-04-18T18:29:37.650Z,99324.75
2023-04-18T18:32:12.371Z,99324.69
2023-04-18T18:34:45.680Z,99322.91
2023-04-18T18:37:22.274Z,99325.63
2023-04-18T18:50:29.307Z,99325.63
2023-04-18T18:52:58.108Z,99318.59
2023-04-18T18:55:38.342Z,99316.84
2023-04-18T18:58:11.563Z,99320.31
2023-04-18T19:00:45.324Z,99315.00
2023-04-18T19:03:18.771Z,99315.94
2023-04-18T19:16:09.355Z,99308.81
2023-04-18T19:18:49.327Z,99315.94
2023-04-18T19:21:22.818Z,99316.00
2023-04-18T19:23:56.370Z,99311.56
2023-04-18T19:26:29.784Z,99307.97
2023-04-18T19:29:03.338Z,99312.47
2023-04-18T19:42:16.307Z,99307.09
2023-04-18T19:44:52.079Z,99299.19
2023-04-18T19:47:25.356Z,99292.16
2023-04-18T19:49:58.836Z,99300.06
2023-04-18T19:52:32.348Z,99294.78
2023-04-18T19:55:07.357Z,99294.81
2023-04-18T19:57:45.296Z,99294.81
2023-04-18T20:08:15.282Z,99286.84
2023-04-18T20:10:55.291Z,99290.44
2023-04-18T20:13:30.543Z,99290.44
2023-04-18T20:16:04.373Z,99281.63
2023-04-18T20:18:44.790Z,99288.72
2023-04-18T20:21:25.325Z,99281.69
2023-04-18T20:23:58.613Z,99282.53
2023-04-18T20:36:49.282Z,99279.81
2023-04-18T20:39:29.328Z,99282.41
2023-04-18T20:42:02.599Z,99274.50
2023-04-18T20:44:37.133Z,99274.50
2023-04-18T20:47:10.505Z,99287.72
2023-04-18T21:03:39.411Z,99276.22
2023-04-18T21:06:12.605Z,99277.16
2023-04-18T21:08:46.294Z,99269.19
2023-04-18T21:11:19.681Z,99266.59
2023-04-18T21:13:53.288Z,99268.41
2023-04-18T21:16:26.576Z,99258.72
2023-04-18T21:19:02.315Z,99262.22
2023-04-18T21:29:01.263Z,99255.97
2023-04-18T21:31:41.361Z,99251.56
2023-04-18T21:34:16.610Z,99256.88
2023-04-18T21:36:50.296Z,99254.22
2023-04-18T21:39:23.640Z,99249.81
2023-04-18T21:41:57.285Z,99248.94
2023-04-18T21:55:21.280Z,99246.38
2023-04-18T21:57:54.541Z,99236.63
2023-04-18T22:00:28.312Z,99238.41
2023-04-18T22:03:01.743Z,99229.50
2023-04-18T22:05:35.313Z,99234.81
2023-04-18T22:08:08.702Z,99233.03
2023-04-18T22:24:24.308Z,99219.81
2023-04-18T22:26:57.584Z,99216.25
2023-04-18T22:29:31.293Z,99219.75
2023-04-18T22:32:05.246Z,99215.31
2023-04-18T22:34:38.299Z,99212.66
2023-04-18T22:37:11.701Z,99203.78
2023-04-18T22:50:02.310Z,99198.47
2023-04-18T22:52:43.305Z,99197.50
2023-04-18T22:55:16.687Z,99196.72
2023-04-18T22:57:50.295Z,99198.47
2023-04-18T23:00:23.673Z,99196.56
2023-04-18T23:02:57.431Z,99188.59
2023-04-18T23:16:09.347Z,99179.78
2023-04-18T23:18:42.529Z,99180.66
2023-04-18T23:21:16.298Z,99174.50
2023-04-18T23:23:49.554Z,99180.66
2023-04-18T23:26:23.273Z,99180.66
2023-04-18T23:28:56.768Z,99173.59
2023-04-18T23:42:22.269Z,99162.97
2023-04-18T23:45:02.290Z,99154.97
2023-04-18T23:47:35.647Z,99161.22
2023-04-18T23:50:09.311Z,99159.41
2023-04-18T23:52:42.556Z,99155.81
2023-04-18T23:55:17.320Z,99157.56
2023-04-18T23:57:52.468Z,99154.81
